Time;durP1;ratioP1;P1;durP2;ratioP2;P2;SDS_P1;SDS_P2;PMS_P1;PMS_P2;Temp;Humidity;BMP_temperature;BMP_pressure;BME280_temperature;BME280_humidity;BME280_pressure;Samples;Min_cycle;Max_cycle;Signal;HPM_P1;HPM_P2
2022/10/12 00:00:50;;;;;;;1.55;0.15;;;;;;;-142.37;100.00;59669.53;5096110;28;20024;-72
2022/10/12 00:03:16;;;;;;;2.60;0.20;;;;;;;-142.37;100.00;59669.53;5095476;28;20399;-72
2022/10/12 00:05:42;;;;;;;3.25;0.20;;;;;;;-142.37;100.00;59669.53;5095347;28;20508;-72
2022/10/12 00:08:08;;;;;;;2.28;0.10;;;;;;;-142.37;100.00;59669.53;5113635;28;20066;-71
2022/10/12 00:10:38;;;;;;;0.40;0.10;;;;;;;-142.37;100.00;59669.53;5095469;28;20118;-71
2022/10/12 00:13:04;;;;;;;1.30;0.32;;;;;;;-142.37;100.00;59669.53;5095266;28;20077;-71
2022/10/12 00:15:29;;;;;;;1.10;0.20;;;;;;;-142.37;100.00;59669.53;5095450;28;20028;-70
2022/10/12 00:17:55;;;;;;;0.13;0.10;;;;;;;-142.37;100.00;59669.53;5113597;28;20031;-71
2022/10/12 00:20:20;;;;;;;2.08;0.10;;;;;;;-142.37;100.00;59669.53;5095286;28;20077;-72
2022/10/12 00:22:46;;;;;;;0.85;0.20;;;;;;;-142.37;100.00;59669.53;5113849;28;20073;-71
2022/10/12 00:25:11;;;;;;;0.65;0.10;;;;;;;-142.37;100.00;59669.53;5094901;28;20060;-70
2022/10/12 00:27:37;;;;;;;0.75;0.10;;;;;;;-142.37;100.00;59669.53;5113480;28;20057;-71
2022/10/12 00:30:03;;;;;;;0.65;0.10;;;;;;;-142.37;100.00;59669.53;5095276;28;20434;-70
2022/10/12 00:32:28;;;;;;;0.77;0.05;;;;;;;-142.37;100.00;59669.53;5113273;28;20039;-72
2022/10/12 00:34:54;;;;;;;0.70;0.10;;;;;;;-142.37;100.00;59669.53;5113154;28;20050;-70
2022/10/12 00:37:20;;;;;;;1.00;0.30;;;;;;;-142.37;100.00;59669.53;5094739;28;20052;-69
2022/10/12 00:39:46;;;;;;;1.35;0.13;;;;;;;-142.37;100.00;59669.53;5113297;28;20377;-70
2022/10/12 00:42:12;;;;;;;1.02;0.10;;;;;;;-142.37;100.00;59669.53;5113119;28;20024;-72
2022/10/12 00:44:45;;;;;;;0.55;0.10;;;;;;;-142.37;100.00;59669.53;5094969;28;20023;-70
2022/10/12 00:47:29;;;;;;;0.63;0.20;;;;;;;-142.37;100.00;59669.53;5112937;28;20099;-70
2022/10/12 00:50:07;;;;;;;0.45;0.32;;;;;;;-142.37;100.00;59669.53;5094824;28;20028;-71
2022/10/12 00:52:50;;;;;;;0.55;0.13;;;;;;;-142.37;100.00;59669.53;5094752;28;20164;-71
2022/10/12 00:55:20;;;;;;;0.52;0.10;;;;;;;-142.37;100.00;59669.53;5112841;28;20056;-71
2022/10/12 00:57:48;;;;;;;1.10;0.20;;;;;;;-142.37;100.00;59669.53;5112684;28;20411;-72
2022/10/12 01:00:15;;;;;;;0.52;0.15;;;;;;;-142.37;100.00;59669.53;5112812;28;20047;-70
2022/10/12 01:02:42;;;;;;;2.53;0.13;;;;;;;-142.37;100.00;59669.53;5113230;28;20115;-71
2022/10/12 01:05:10;;;;;;;2.60;0.10;;;;;;;-142.37;100.00;59669.53;5112776;28;20023;-70
2022/10/12 01:07:36;;;;;;;0.63;0.28;;;;;;;-142.37;100.00;59669.53;5112956;28;20027;-71
2022/10/12 01:10:02;;;;;;;0.10;0.00;;;;;;;-142.37;100.00;59669.53;5094280;28;20035;-71
2022/10/12 01:12:28;;;;;;;0.85;0.10;;;;;;;-142.37;100.00;59669.53;5094440;28;20024;-72
2022/10/12 01:14:54;;;;;;;3.00;0.20;;;;;;;-142.37;100.00;59669.53;5112578;28;20498;-73
2022/10/12 01:17:34;;;;;;;0.15;0.00;;;;;;;-142.37;100.00;59669.53;5112655;28;20028;-72
2022/10/12 01:20:21;;;;;;;1.73;0.08;;;;;;;-142.37;100.00;59669.53;5094342;28;20032;-73
2022/10/12 01:23:01;;;;;;;3.38;0.20;;;;;;;-142.37;100.00;59669.53;5094383;28;20114;-70
2022/10/12 01:25:47;;;;;;;0.70;0.17;;;;;;;-142.37;100.00;59669.53;5094315;28;20035;-71
2022/10/12 01:28:45;;;;;;;1.40;0.28;;;;;;;-142.37;100.00;59669.53;5094385;28;20042;-70
2022/10/12 01:31:24;;;;;;;0.90;0.10;;;;;;;-142.37;100.00;59669.53;5116115;28;20032;-70
2022/10/12 01:34:05;;;;;;;1.48;0.28;;;;;;;-142.37;100.00;59669.53;5116850;28;20027;-71
2022/10/12 01:36:36;;;;;;;0.45;0.13;;;;;;;-142.37;100.00;59669.53;5098557;28;20047;-72
2022/10/12 01:39:16;;;;;;;0.98;0.10;;;;;;;-142.37;100.00;59669.53;5098117;28;20031;-71
2022/10/12 01:41:56;;;;;;;0.90;0.10;;;;;;;-142.37;100.00;59669.53;5116742;28;20115;-71
2022/10/12 01:44:24;;;;;;;1.20;0.20;;;;;;;-142.37;100.00;59669.53;5116434;28;20487;-71
2022/10/12 01:46:52;;;;;;;0.47;0.10;;;;;;;-142.37;100.00;59669.53;5116619;28;20392;-70
2022/10/12 01:49:27;;;;;;;0.75;0.10;;;;;;;-142.37;100.00;59669.53;5116511;28;20076;-70
2022/10/12 01:52:21;;;;;;;0.50;0.10;;;;;;;-142.37;100.00;59669.53;5098004;28;20067;-69
2022/10/12 01:55:06;;;;;;;0.38;0.20;;;;;;;-142.37;100.00;59669.53;5097779;28;20066;-70
2022/10/12 01:57:50;;;;;;;;;;;;;;;-142.37;100.00;59669.53;5116718;28;20070;-71
2022/10/12 02:00:16;;;;;;;1.58;0.20;;;;;;;-142.37;100.00;59669.53;5097914;28;20309;-71
2022/10/12 02:03:05;;;;;;;0.98;0.22;;;;;;;-142.37;100.00;59669.53;5097914;28;20034;-72
2022/10/12 02:05:42;;;;;;;0.88;0.10;;;;;;;-142.37;100.00;59669.53;5097942;28;20031;-70
2022/10/12 02:08:16;;;;;;;2.50;0.73;;;;;;;-142.37;100.00;59669.53;5116365;28;20019;-69
2022/10/12 02:10:56;;;;;;;0.82;0.25;;;;;;;-142.37;100.00;59669.53;5097816;28;20050;-69
2022/10/12 02:13:26;;;;;;;0.52;0.10;;;;;;;-142.37;100.00;59669.53;5115991;28;20103;-69
2022/10/12 02:15:53;;;;;;;0.63;0.17;;;;;;;-142.37;100.00;59669.53;5116422;28;20046;-70
2022/10/12 02:18:20;;;;;;;0.30;0.17;;;;;;;-142.37;100.00;59669.53;5097825;28;20073;-71
2022/10/12 02:20:50;;;;;;;3.00;0.22;;;;;;;-142.37;100.00;59669.53;5097800;28;20020;-71
2022/10/12 02:23:17;;;;;;;2.72;0.40;;;;;;;-142.37;100.00;59669.53;5097295;28;20027;-71
2022/10/12 02:25:45;;;;;;;2.05;0.17;;;;;;;-142.37;100.00;59669.53;5115670;28;20024;-71
2022/10/12 02:28:15;;;;;;;2.97;0.20;;;;;;;-142.37;100.00;59669.53;5115851;28;20042;-71
2022/10/12 02:31:09;;;;;;;0.57;0.20;;;;;;;-142.37;100.00;59669.53;5097724;28;20391;-71
2022/10/12 02:34:13;;;;;;;1.60;0.20;;;;;;;-142.37;100.00;59669.53;5097455;28;20437;-70
2022/10/12 02:36:48;;;;;;;1.05;0.20;;;;;;;-142.37;100.00;59669.53;5097166;28;20118;-70
2022/10/12 02:39:30;;;;;;;2.90;0.20;;;;;;;-142.37;100.00;59669.53;5097150;28;20024;-71
2022/10/12 02:42:05;;;;;;;2.50;0.70;;;;;;;-142.37;100.00;59669.53;5095881;28;20031;-70
2022/10/12 02:44:35;;;;;;;0.88;0.13;;;;;;;-142.37;100.00;59669.53;5115410;28;20051;-69
2022/10/12 02:47:03;;;;;;;1.15;0.30;;;;;;;-142.37;100.00;59669.53;5115613;28;20035;-71
2022/10/12 02:49:30;;;;;;;1.15;0.30;;;;;;;-142.37;100.00;59669.53;5115198;28;20059;-71
2022/10/12 02:51:57;;;;;;;1.08;0.10;;;;;;;-142.37;100.00;59669.53;5115516;28;20027;-70
2022/10/12 02:54:22;;;;;;;1.42;0.20;;;;;;;-142.37;100.00;59669.53;5115644;28;20080;-70
2022/10/12 02:56:48;;;;;;;1.45;0.20;;;;;;;-142.37;100.00;59669.53;5115395;28;20043;-72
2022/10/12 02:59:15;;;;;;;2.78;0.10;;;;;;;-142.37;100.00;59669.53;5115001;28;20368;-71
2022/10/12 03:01:41;;;;;;;2.67;0.30;;;;;;;-142.37;100.00;59669.53;5115482;28;20454;-70
2022/10/12 03:04:07;;;;;;;0.60;0.10;;;;;;;-142.37;100.00;59669.53;5115509;28;20030;-69
2022/10/12 03:06:33;;;;;;;3.50;0.50;;;;;;;-142.37;100.00;59669.53;5096868;28;20038;-71
2022/10/12 03:08:58;;;;;;;2.90;0.43;;;;;;;-142.37;100.00;59669.53;5114928;28;20110;-71
2022/10/12 03:11:24;;;;;;;6.47;1.02;;;;;;;-142.37;100.00;59669.53;5096666;28;20032;-71
2022/10/12 03:13:54;;;;;;;11.10;0.65;;;;;;;-142.37;100.00;59669.53;5114711;28;20472;-71
2022/10/12 03:16:20;;;;;;;1.23;0.30;;;;;;;-142.37;100.00;59669.53;5115279;28;20086;-72
2022/10/12 03:18:45;;;;;;;9.43;0.32;;;;;;;-142.37;100.00;59669.53;5115368;28;20522;-71
2022/10/12 03:21:11;;;;;;;2.55;0.43;;;;;;;-142.37;100.00;59669.53;5096534;28;20123;-70
2022/10/12 03:23:37;;;;;;;6.57;0.47;;;;;;;-142.37;100.00;59669.53;5114775;28;20107;-72
2022/10/12 03:26:04;;;;;;;1.85;0.20;;;;;;;-142.37;100.00;59669.53;5114726;28;20038;-69
2022/10/12 03:28:30;;;;;;;4.57;0.40;;;;;;;-142.37;100.00;59669.53;5114551;28;20020;-71
2022/10/12 03:30:56;;;;;;;9.02;0.70;;;;;;;-142.37;100.00;59669.53;5114299;28;20023;-71
2022/10/12 03:33:22;;;;;;;0.98;0.28;;;;;;;-142.37;100.00;59669.53;5114452;28;20035;-70
2022/10/12 03:35:48;;;;;;;0.50;0.40;;;;;;;-142.37;100.00;59669.53;5114329;28;20476;-71
2022/10/12 03:38:15;;;;;;;1.50;0.30;;;;;;;-142.37;100.00;59669.53;5095796;28;20023;-70
2022/10/12 03:40:41;;;;;;;2.08;0.30;;;;;;;-142.37;100.00;59669.53;5096034;28;20476;-70
2022/10/12 03:43:07;;;;;;;2.83;0.35;;;;;;;-142.37;100.00;59669.53;5114017;28;20023;-69
2022/10/12 03:45:33;;;;;;;2.67;0.20;;;;;;;-142.37;100.00;59669.53;5114395;28;20020;-69
2022/10/12 03:47:59;;;;;;;1.60;0.30;;;;;;;-142.37;100.00;59669.53;5114138;28;20034;-71
2022/10/12 03:50:25;;;;;;;3.17;0.50;;;;;;;-142.37;100.00;59669.53;5095671;28;20027;-68
2022/10/12 03:52:50;;;;;;;2.10;0.70;;;;;;;-142.37;100.00;59669.53;5113794;28;20038;-68
2022/10/12 03:55:16;;;;;;;2.83;0.60;;;;;;;-142.37;100.00;59669.53;5113690;28;20027;-68
2022/10/12 03:57:41;;;;;;;2.22;0.32;;;;;;;-142.37;100.00;59669.53;5113334;28;20134;-69
2022/10/12 04:00:08;;;;;;;1.58;0.50;;;;;;;-142.37;100.00;59669.53;5113705;28;20483;-70
2022/10/12 04:02:33;;;;;;;1.05;0.60;;;;;;;-142.37;100.00;59669.53;5113890;28;20125;-69
2022/10/12 04:04:59;;;;;;;1.42;0.25;;;;;;;-142.37;100.00;59669.53;5095207;28;20514;-70
2022/10/12 04:07:25;;;;;;;2.28;0.40;;;;;;;-142.37;100.00;59669.53;5095415;28;20023;-69
2022/10/12 04:09:53;;;;;;;1.77;0.45;;;;;;;-142.37;100.00;59669.53;5113553;28;20043;-69
2022/10/12 04:12:19;;;;;;;2.65;0.60;;;;;;;-142.37;100.00;59669.53;5095175;28;20019;-70
2022/10/12 04:14:44;;;;;;;1.17;0.45;;;;;;;-142.37;100.00;59669.53;5095466;28;20388;-69
2022/10/12 04:17:11;;;;;;;3.30;0.60;;;;;;;-142.37;100.00;59669.53;5113213;28;20119;-70
2022/10/12 04:19:36;;;;;;;2.90;0.50;;;;;;;-142.37;100.00;59669.53;5113360;28;20058;-70
2022/10/12 04:22:02;;;;;;;3.28;0.50;;;;;;;-142.37;100.00;59669.53;5094995;28;20074;-70
2022/10/12 04:24:27;;;;;;;1.92;0.40;;;;;;;-142.37;100.00;59669.53;5094966;28;20172;-69
2022/10/12 04:26:53;;;;;;;1.42;0.28;;;;;;;-142.37;100.00;59669.53;5094852;28;20020;-70
2022/10/12 04:29:19;;;;;;;3.05;0.50;;;;;;;-142.37;100.00;59669.53;5112684;28;20028;-70
2022/10/12 04:31:44;;;;;;;1.48;0.47;;;;;;;-142.37;100.00;59669.53;5094654;28;20043;-69
2022/10/12 04:34:10;;;;;;;3.60;0.30;;;;;;;-142.37;100.00;59669.53;5095181;28;20032;-69
2022/10/12 04:36:36;;;;;;;3.17;0.38;;;;;;;-142.37;100.00;59669.53;5094613;28;20385;-68
2022/10/12 04:39:02;;;;;;;10.40;0.50;;;;;;;-142.37;100.00;59669.53;5112749;28;20028;-69
2022/10/12 04:41:27;;;;;;;2.72;0.30;;;;;;;-142.37;100.00;59669.53;5094516;28;20035;-69
2022/10/12 04:43:53;;;;;;;2.22;0.32;;;;;;;-142.37;100.00;59669.53;5112734;28;20032;-71
2022/10/12 04:46:18;;;;;;;3.80;0.60;;;;;;;-142.37;100.00;59669.53;5094617;28;20399;-71
2022/10/12 04:48:44;;;;;;;7.32;0.77;;;;;;;-142.37;100.00;59669.53;5112415;28;20029;-70
2022/10/12 04:51:10;;;;;;;1.58;0.40;;;;;;;-142.37;100.00;59669.53;5112849;28;20106;-69
2022/10/12 04:53:36;;;;;;;1.23;0.30;;;;;;;-142.37;100.00;59669.53;5112507;28;20015;-70
2022/10/12 04:56:03;;;;;;;1.88;0.40;;;;;;;-142.37;100.00;59669.53;5093895;28;20023;-69
2022/10/12 04:58:29;;;;;;;3.20;0.70;;;;;;;-142.37;100.00;59669.53;5112643;28;20035;-69
2022/10/12 05:00:54;;;;;;;2.28;0.80;;;;;;;-142.37;100.00;59669.53;5093844;28;20020;-71
2022/10/12 05:03:20;;;;;;;2.58;0.50;;;;;;;-142.37;100.00;59669.53;5112351;28;20472;-69
2022/10/12 05:05:46;;;;;;;0.68;0.20;;;;;;;-142.37;100.00;59669.53;5093375;28;20023;-71
2022/10/12 05:08:11;;;;;;;0.63;0.20;;;;;;;-142.37;100.00;59669.53;5093731;28;20047;-70
2022/10/12 05:10:38;;;;;;;4.07;0.60;;;;;;;-142.37;100.00;59669.53;5093919;28;20034;-69
2022/10/12 05:13:03;;;;;;;2.83;0.40;;;;;;;-142.37;100.00;59669.53;5093726;28;20071;-71
2022/10/12 05:15:29;;;;;;;2.00;0.30;;;;;;;-142.37;100.00;59669.53;5111997;28;20055;-70
2022/10/12 05:17:55;;;;;;;2.13;0.30;;;;;;;-142.37;100.00;59669.53;5111766;28;20039;-70
2022/10/12 05:20:21;;;;;;;2.35;0.70;;;;;;;-142.37;100.00;59669.53;5111568;28;20030;-69
2022/10/12 05:22:46;;;;;;;2.95;0.40;;;;;;;-142.37;100.00;59669.53;5111532;28;20034;-71
2022/10/12 05:25:12;;;;;;;5.13;0.52;;;;;;;-142.37;100.00;59669.53;5110964;28;20028;-72
2022/10/12 05:27:38;;;;;;;2.38;0.73;;;;;;;-142.37;100.00;59669.53;5093643;28;20441;-70
2022/10/12 05:30:05;;;;;;;5.45;0.68;;;;;;;-142.37;100.00;59669.53;5093366;28;20028;-71
2022/10/12 05:32:31;;;;;;;2.65;0.60;;;;;;;-142.37;100.00;59669.53;5093320;28;20027;-70
2022/10/12 05:34:57;;;;;;;4.35;0.60;;;;;;;-142.37;100.00;59669.53;5111278;28;20365;-72
2022/10/12 05:37:23;;;;;;;2.92;0.60;;;;;;;-142.37;100.00;59669.53;5111866;28;20031;-71
2022/10/12 05:39:50;;;;;;;2.33;0.52;;;;;;;-142.37;100.00;59669.53;5093209;28;20137;-72
2022/10/12 05:42:17;;;;;;;1.83;0.50;;;;;;;-142.37;100.00;59669.53;5093322;28;20488;-71
2022/10/12 05:44:42;;;;;;;6.97;0.50;;;;;;;-142.37;100.00;59669.53;5093257;28;20023;-72
2022/10/12 05:47:09;;;;;;;1.02;0.43;;;;;;;-142.37;100.00;59669.53;5093015;28;20118;-71
2022/10/12 05:49:34;;;;;;;3.75;1.00;;;;;;;-142.37;100.00;59669.53;5111570;28;20028;-70
2022/10/12 05:52:00;;;;;;;3.40;0.60;;;;;;;-142.37;100.00;59669.53;5092577;28;20028;-71
2022/10/12 05:54:26;;;;;;;2.58;0.30;;;;;;;-142.37;100.00;59669.53;5111016;28;20106;-69
2022/10/12 05:56:52;;;;;;;2.10;0.70;;;;;;;-142.37;100.00;59669.53;5092687;28;20059;-72
2022/10/12 05:59:18;;;;;;;3.88;1.00;;;;;;;-142.37;100.00;59669.53;5092710;28;20077;-72
2022/10/12 06:01:43;;;;;;;6.68;0.82;;;;;;;-142.37;100.00;59669.53;5111112;28;20031;-71
2022/10/12 06:04:09;;;;;;;3.10;0.80;;;;;;;-142.37;100.00;59669.53;5111249;28;20040;-72
2022/10/12 06:06:35;;;;;;;6.28;1.00;;;;;;;-142.37;100.00;59669.53;5111100;28;20061;-71
2022/10/12 06:09:02;;;;;;;2.25;0.50;;;;;;;-142.37;100.00;59669.53;5110769;28;20056;-71
2022/10/12 06:11:28;;;;;;;5.55;0.90;;;;;;;-142.37;100.00;59669.53;5093345;28;20377;-70
2022/10/12 06:13:53;;;;;;;3.95;0.57;;;;;;;-142.37;100.00;59669.53;5092930;28;20456;-71
2022/10/12 06:16:20;;;;;;;3.92;0.82;;;;;;;-142.37;100.00;59669.53;5112170;28;20456;-72
2022/10/12 06:18:45;;;;;;;6.18;0.90;;;;;;;-142.37;100.00;59669.53;5095707;28;20032;-72
2022/10/12 06:21:11;;;;;;;6.20;1.02;;;;;;;-142.37;100.00;59669.53;5113813;28;20492;-71
2022/10/12 06:23:36;;;;;;;1.48;0.65;;;;;;;-142.37;100.00;59669.53;5114032;28;20024;-71
2022/10/12 06:26:02;;;;;;;4.00;0.70;;;;;;;-142.37;100.00;59669.53;5095973;28;20163;-71
2022/10/12 06:28:28;;;;;;;1.85;1.08;;;;;;;-142.37;100.00;59669.53;5096490;28;20085;-71
2022/10/12 06:30:56;;;;;;;3.22;0.77;;;;;;;-142.37;100.00;59669.53;5095528;28;20020;-71
2022/10/12 06:33:22;;;;;;;6.25;1.92;;;;;;;-142.37;100.00;59669.53;5096137;28;20027;-72
2022/10/12 06:35:47;;;;;;;5.22;1.05;;;;;;;-142.37;100.00;59669.53;5095160;28;20032;-72
2022/10/12 06:38:13;;;;;;;4.25;0.95;;;;;;;-142.37;100.00;59669.53;5114240;28;20787;-72
2022/10/12 06:40:39;;;;;;;8.35;2.80;;;;;;;-142.37;100.00;59669.53;5114391;28;20119;-72
2022/10/12 06:43:05;;;;;;;2.65;0.90;;;;;;;-142.37;100.00;59669.53;5114514;28;20106;-72
2022/10/12 06:45:31;;;;;;;5.40;0.77;;;;;;;-142.37;100.00;59669.53;5096109;28;20114;-72
2022/10/12 06:47:57;;;;;;;12.18;0.98;;;;;;;-142.37;100.00;59669.53;5095729;28;20368;-72
2022/10/12 06:50:25;;;;;;;8.00;1.30;;;;;;;-142.37;100.00;59669.53;5095823;28;20068;-72
2022/10/12 06:52:51;;;;;;;8.00;0.98;;;;;;;-142.37;100.00;59669.53;5095815;28;20533;-72
2022/10/12 06:55:17;;;;;;;7.30;1.40;;;;;;;-142.37;100.00;59669.53;5095551;28;20104;-72
2022/10/12 06:57:43;;;;;;;4.38;1.10;;;;;;;-142.37;100.00;59669.53;5114709;28;20047;-71
2022/10/12 07:00:11;;;;;;;6.72;1.00;;;;;;;-142.37;100.00;59669.53;5114750;28;20116;-72
2022/10/12 07:02:36;;;;;;;6.75;0.80;;;;;;;-142.37;100.00;59669.53;5096252;28;20032;-70
2022/10/12 07:05:03;;;;;;;3.80;0.90;;;;;;;-142.37;100.00;59669.53;5113649;28;20145;-71
2022/10/12 07:07:30;;;;;;;5.07;0.88;;;;;;;-142.37;100.00;59669.53;5114102;28;20062;-69
2022/10/12 07:09:56;;;;;;;4.85;1.13;;;;;;;-142.37;100.00;59669.53;5113542;28;20338;-71
2022/10/12 07:12:21;;;;;;;3.15;0.65;;;;;;;-142.37;100.00;59669.53;5113635;28;20430;-71
2022/10/12 07:14:47;;;;;;;3.17;0.70;;;;;;;-142.37;100.00;59669.53;5095207;28;20060;-71
2022/10/12 07:17:13;;;;;;;1.13;0.50;;;;;;;-142.37;100.00;59669.53;5094941;28;20034;-70
2022/10/12 07:19:38;;;;;;;5.25;1.08;;;;;;;-142.37;100.00;59669.53;5113576;28;20032;-69
2022/10/12 07:22:04;;;;;;;1.73;0.50;;;;;;;-142.37;100.00;59669.53;5113450;28;20048;-71
2022/10/12 07:24:35;;;;;;;5.60;1.92;;;;;;;-142.37;100.00;59669.53;5095810;28;20019;-71
2022/10/12 07:27:06;;;;;;;6.68;2.78;;;;;;;-142.37;100.00;59669.53;5113075;28;20114;-70
2022/10/12 07:29:33;;;;;;;6.22;1.35;;;;;;;-142.37;100.00;59669.53;5094974;28;20198;-71
2022/10/12 07:32:00;;;;;;;4.85;1.13;;;;;;;-142.37;100.00;59669.53;5113381;28;20357;-70
2022/10/12 07:34:26;;;;;;;3.45;1.65;;;;;;;-142.37;100.00;59669.53;5095101;28;20028;-70
2022/10/12 07:36:52;;;;;;;5.18;1.48;;;;;;;-142.37;100.00;59669.53;5095073;28;20071;-72
2022/10/12 07:39:19;;;;;;;3.55;0.80;;;;;;;-142.37;100.00;59669.53;5094423;28;20433;-69
2022/10/12 07:41:44;;;;;;;5.82;0.80;;;;;;;-142.37;100.00;59669.53;5095278;28;20019;-69
2022/10/12 07:44:11;;;;;;;6.57;0.98;;;;;;;-142.37;100.00;59669.53;5113554;28;20467;-70
2022/10/12 07:46:36;;;;;;;3.95;0.50;;;;;;;-142.37;100.00;59669.53;5094774;28;20377;-70
2022/10/12 07:49:03;;;;;;;2.08;0.82;;;;;;;-142.37;100.00;59669.53;5094677;28;20085;-71
2022/10/12 07:51:29;;;;;;;5.85;0.82;;;;;;;-142.37;100.00;59669.53;5113403;28;20073;-71
2022/10/12 07:53:55;;;;;;;3.22;0.70;;;;;;;-142.37;100.00;59669.53;5094859;28;20076;-70
2022/10/12 07:56:21;;;;;;;2.33;0.65;;;;;;;-142.37;100.00;59669.53;5094713;28;20044;-70
2022/10/12 07:58:50;;;;;;;2.92;0.70;;;;;;;-142.37;100.00;59669.53;5113246;28;20028;-72
2022/10/12 08:01:17;;;;;;;2.35;0.65;;;;;;;-142.37;100.00;59669.53;5094319;28;20035;-73
2022/10/12 08:03:43;;;;;;;2.13;0.77;;;;;;;-142.37;100.00;59669.53;5095422;28;20476;-75
2022/10/12 08:06:10;;;;;;;5.60;0.80;;;;;;;-142.37;100.00;59669.53;5113111;28;20023;-75
2022/10/12 08:08:37;;;;;;;10.93;1.17;;;;;;;-142.37;100.00;59669.53;5094821;28;20455;-73
2022/10/12 08:11:04;;;;;;;5.70;0.85;;;;;;;-142.37;100.00;59669.53;5112857;28;20054;-72
2022/10/12 08:13:30;;;;;;;4.07;1.05;;;;;;;-142.37;100.00;59669.53;5112985;28;20061;-70
2022/10/12 08:15:56;;;;;;;5.63;0.95;;;;;;;-142.37;100.00;59669.53;5095148;28;20122;-70
2022/10/12 08:18:22;;;;;;;6.22;0.85;;;;;;;-142.37;100.00;59669.53;5094732;28;20057;-71
2022/10/12 08:20:47;;;;;;;4.13;0.55;;;;;;;-142.37;100.00;59669.53;5112657;28;20034;-70
2022/10/12 08:23:13;;;;;;;4.95;0.65;;;;;;;-142.37;100.00;59669.53;5112344;28;20032;-70
2022/10/12 08:25:39;;;;;;;3.25;0.77;;;;;;;-142.37;100.00;59669.53;5112677;28;20162;-70
2022/10/12 08:28:04;;;;;;;5.65;0.90;;;;;;;-142.37;100.00;59669.53;5094272;28;20137;-70
2022/10/12 08:30:31;;;;;;;2.75;1.50;;;;;;;-142.37;100.00;59669.53;5112859;28;20088;-71
2022/10/12 08:32:57;;;;;;;5.80;0.98;;;;;;;-142.37;100.00;59669.53;5112502;28;20030;-69
2022/10/12 08:35:22;;;;;;;3.88;0.70;;;;;;;-142.37;100.00;59669.53;5112488;28;20039;-69
2022/10/12 08:37:48;;;;;;;2.58;0.77;;;;;;;-142.37;100.00;59669.53;5112770;28;20094;-70
2022/10/12 08:40:24;;;;;;;3.55;1.30;;;;;;;-142.37;100.00;59669.53;5112357;28;20032;-70
2022/10/12 08:43:01;;;;;;;3.78;0.70;;;;;;;-142.37;100.00;59669.53;5093884;28;20035;-70
2022/10/12 08:45:40;;;;;;;3.15;0.80;;;;;;;-142.37;100.00;59669.53;5093831;28;20032;-70
2022/10/12 08:48:34;;;;;;;6.90;1.02;;;;;;;-142.37;100.00;59669.53;5112376;28;20027;-71
2022/10/12 08:51:09;;;;;;;3.17;0.77;;;;;;;-142.37;100.00;59669.53;5093723;28;20034;-69
2022/10/12 08:54:15;;;;;;;2.67;0.73;;;;;;;-142.37;100.00;59669.53;5093787;28;20122;-69
2022/10/12 08:56:41;;;;;;;2.30;0.90;;;;;;;-142.37;100.00;59669.53;5029270;28;20093;-68
2022/10/12 08:59:18;;;;;;;2.78;1.20;;;;;;;-142.37;100.00;59669.53;5076752;28;20039;-69
2022/10/12 09:02:04;;;;;;;2.80;1.10;;;;;;;-142.37;100.00;59669.53;5112129;28;20090;-69
2022/10/12 09:04:57;;;;;;;6.13;1.48;;;;;;;-142.37;100.00;59669.53;5093688;28;20440;-68
2022/10/12 09:07:31;;;;;;;4.47;1.05;;;;;;;-142.37;100.00;59669.53;5081215;28;20027;-69
2022/10/12 09:10:21;;;;;;;1.17;0.52;;;;;;;-142.37;100.00;59669.53;5111352;28;20120;-68
2022/10/12 09:13:17;;;;;;;8.07;4.05;;;;;;;-142.37;100.00;59669.53;5093446;28;20093;-69
2022/10/12 09:16:12;;;;;;;;;;;;;;;-142.37;100.00;59669.53;5111673;28;20403;-67
2022/10/12 09:18:45;;;;;;;2.00;0.90;;;;;;;-142.37;100.00;59669.53;5079458;28;19919;-68
2022/10/12 09:21:16;;;;;;;3.03;0.60;;;;;;;-142.37;100.00;59669.53;5111508;28;20039;-67
2022/10/12 09:23:45;;;;;;;1.25;0.40;;;;;;;-142.37;100.00;59669.53;5093149;28;20039;-68
2022/10/12 09:26:20;;;;;;;1.60;0.70;;;;;;;-142.37;100.00;59669.53;5092831;28;20027;-67
2022/10/12 09:28:56;;;;;;;0.82;0.60;;;;;;;-142.37;100.00;59669.53;5111315;28;20471;-67
2022/10/12 09:31:55;;;;;;;7.28;1.65;;;;;;;-142.37;100.00;59669.53;5111344;28;20068;-67
2022/10/12 09:34:23;;;;;;;0.85;0.65;;;;;;;-142.37;100.00;59669.53;5092801;28;20540;-67
2022/10/12 09:36:49;;;;;;;3.50;2.10;;;;;;;-142.37;100.00;59669.53;5092457;28;20381;-66
2022/10/12 09:39:20;;;;;;;5.85;0.65;;;;;;;-142.37;100.00;59669.53;5110688;28;20091;-67
2022/10/12 09:41:48;;;;;;;4.25;1.00;;;;;;;-142.37;100.00;59669.53;5111170;28;20034;-68
2022/10/12 09:44:32;;;;;;;2.80;1.52;;;;;;;-142.37;100.00;59669.53;5092409;28;20108;-65
2022/10/12 09:46:59;;;;;;;;;;;;;;;-142.37;100.00;59669.53;5110662;28;20134;-67
2022/10/12 09:49:45;;;;;;;2.20;1.33;;;;;;;-142.37;100.00;59669.53;5091835;28;20283;-66
2022/10/12 09:52:16;;;;;;;1.88;0.80;;;;;;;-142.37;100.00;59669.53;5114475;28;20027;-68
2022/10/12 09:54:49;;;;;;;2.38;1.75;;;;;;;-142.37;100.00;59669.53;5096826;28;20485;-68
2022/10/12 09:57:21;;;;;;;3.95;0.70;;;;;;;-142.37;100.00;59669.53;5079734;28;20041;-67
2022/10/12 09:59:48;;;;;;;1.38;0.70;;;;;;;-142.37;100.00;59669.53;5074727;28;20028;-67
2022/10/12 10:02:16;;;;;;;2.55;0.70;;;;;;;-142.37;100.00;59669.53;5073854;28;20093;-67
2022/10/12 10:04:44;;;;;;;3.22;2.25;;;;;;;-142.37;100.00;59669.53;5073491;28;20020;-66
2022/10/12 10:07:32;;;;;;;4.47;1.63;;;;;;;-142.37;100.00;59669.53;5073030;28;20031;-66
2022/10/12 10:10:11;;;;;;;5.30;2.65;;;;;;;-142.37;100.00;59669.53;5073846;28;20047;-66
2022/10/12 10:12:50;;;;;;;4.03;1.33;;;;;;;-142.37;100.00;59669.53;5073480;28;20024;-67
2022/10/12 10:15:26;;;;;;;3.63;1.63;;;;;;;-142.37;100.00;59669.53;5073688;28;20027;-66
2022/10/12 10:17:55;;;;;;;3.92;1.52;;;;;;;-142.37;100.00;59669.53;5071967;28;20040;-65
2022/10/12 10:20:28;;;;;;;4.60;1.38;;;;;;;-142.37;100.00;59669.53;5073569;28;20036;-65
2022/10/12 10:22:54;;;;;;;8.05;2.67;;;;;;;-142.37;100.00;59669.53;5072265;28;20032;-66
2022/10/12 10:25:21;;;;;;;3.53;0.70;;;;;;;-142.37;100.00;59669.53;5073719;28;20063;-66
2022/10/12 10:27:49;;;;;;;5.15;1.08;;;;;;;-142.37;100.00;59669.53;5072498;28;20029;-65
2022/10/12 10:30:15;;;;;;;2.03;0.80;;;;;;;-142.37;100.00;59669.53;5072312;28;20036;-65
2022/10/12 10:32:41;;;;;;;4.53;1.13;;;;;;;-142.37;100.00;59669.53;5073097;28;20118;-67
2022/10/12 10:35:10;;;;;;;6.63;1.35;;;;;;;-142.37;100.00;59669.53;5073577;28;20036;-66
2022/10/12 10:37:37;;;;;;;4.47;1.23;;;;;;;-142.37;100.00;59669.53;5071541;28;20036;-66
2022/10/12 10:40:04;;;;;;;1.45;1.13;;;;;;;-142.37;100.00;59669.53;5073780;28;20354;-66
2022/10/12 10:42:33;;;;;;;3.63;1.00;;;;;;;-142.37;100.00;59669.53;5072151;28;20035;-65
2022/10/12 10:45:07;;;;;;;1.00;0.65;;;;;;;-142.37;100.00;59669.53;5073306;28;20039;-65
2022/10/12 10:47:41;;;;;;;;;;;;;;;-142.37;100.00;59669.53;5073686;28;20029;-67
2022/10/12 10:50:24;;;;;;;1.92;0.90;;;;;;;-142.37;100.00;59669.53;5071643;28;19928;-66
2022/10/12 10:52:56;;;;;;;4.10;2.38;;;;;;;-142.37;100.00;59669.53;5072081;28;20144;-65
2022/10/12 10:55:41;;;;;;;1.10;0.40;;;;;;;-142.37;100.00;59669.53;5073878;28;20035;-66
2022/10/12 10:58:15;;;;;;;;;;;;;;;-142.37;100.00;59669.53;5072232;28;20052;-65
2022/10/12 11:00:43;;;;;;;4.43;0.40;;;;;;;-142.37;100.00;59669.53;5072151;28;20396;-64
2022/10/12 11:03:24;;;;;;;2.97;0.65;;;;;;;-142.37;100.00;59669.53;5072049;28;20040;-66
2022/10/12 11:06:19;;;;;;;3.72;1.33;;;;;;;-142.37;100.00;59669.53;5073155;28;20115;-65
2022/10/12 11:08:48;;;;;;;2.15;0.30;;;;;;;-142.37;100.00;59669.53;5072941;28;20434;-65
2022/10/12 11:11:22;;;;;;;2.20;0.30;;;;;;;-142.37;100.00;59669.53;5073010;28;20040;-65
2022/10/12 11:14:19;;;;;;;5.20;0.83;;;;;;;-142.37;100.00;59669.53;5071627;28;20053;-66
2022/10/12 11:16:45;;;;;;;1.73;0.38;;;;;;;-142.37;100.00;59669.53;5070390;28;20344;-65
2022/10/12 11:19:13;;;;;;;1.27;0.40;;;;;;;-142.37;100.00;59669.53;5071651;28;20116;-66
2022/10/12 11:22:11;;;;;;;2.33;0.60;;;;;;;-142.37;100.00;59669.53;5072081;28;20032;-65